createdAt,value
2018-04-22T00:00:08.463Z,4.00
2018-04-22T00:02:44.524Z,4.00
2018-04-22T00:03:44.276Z,4.00
2018-04-22T00:04:43.959Z,4.00
2018-04-22T00:05:43.959Z,4.00
2018-04-22T00:06:49.615Z,4.00
2018-04-22T00:07:47.358Z,4.00
2018-04-22T00:08:44.459Z,4.00
2018-04-22T00:09:44.599Z,4.00
2018-04-22T00:10:44.772Z,4.00
2018-04-22T00:11:45.852Z,4.00
2018-04-22T00:12:45.149Z,4.00
2018-04-22T00:13:46.898Z,4.00
2018-04-22T00:14:45.569Z,4.00
2018-04-22T00:15:45.610Z,4.00
2018-04-22T00:16:46.281Z,4.00
2018-04-22T00:19:18.073Z,4.00
2018-04-22T00:20:18.242Z,4.00
2018-04-22T00:21:18.411Z,4.00
2018-04-22T00:22:18.584Z,4.00
2018-04-22T00:23:18.752Z,4.00
2018-04-22T00:24:18.917Z,4.00
2018-04-22T00:25:19.084Z,4.00
2018-04-22T00:26:19.295Z,4.00
2018-04-22T00:27:19.480Z,4.00
2018-04-22T00:28:19.642Z,4.00
2018-04-22T00:29:19.806Z,4.00
2018-04-22T00:30:19.975Z,4.00
2018-04-22T00:31:20.143Z,4.00
2018-04-22T00:32:20.311Z,4.00
2018-04-22T00:33:20.475Z,4.00
2018-04-22T00:36:02.750Z,4.00
2018-04-22T00:37:02.917Z,4.00
2018-04-22T00:38:03.083Z,4.00
2018-04-22T00:39:03.249Z,4.00
2018-04-22T00:40:03.416Z,4.00
2018-04-22T00:41:03.581Z,4.00
2018-04-22T00:42:03.745Z,4.00
2018-04-22T00:43:03.914Z,4.00
2018-04-22T00:44:04.085Z,4.00
2018-04-22T00:45:04.252Z,4.00
2018-04-22T00:47:46.810Z,4.00
2018-04-22T00:48:46.983Z,4.00
2018-04-22T00:49:47.149Z,4.00
2018-04-22T00:50:47.319Z,4.00
2018-04-22T00:51:47.483Z,4.00
2018-04-22T00:52:47.651Z,4.00
2018-04-22T00:53:47.814Z,4.00
2018-04-22T00:54:47.986Z,4.00
2018-04-22T00:55:48.150Z,4.00
2018-04-22T00:56:48.316Z,4.00
2018-04-22T00:59:20.611Z,4.00
2018-04-22T01:00:20.778Z,4.00
2018-04-22T01:01:20.946Z,4.00
2018-04-22T01:02:21.110Z,4.00
2018-04-22T01:03:21.277Z,4.00
2018-04-22T01:04:21.455Z,4.00
2018-04-22T01:05:21.635Z,4.00
2018-04-22T01:06:21.797Z,4.00
2018-04-22T01:07:21.966Z,4.00
2018-04-22T01:08:22.133Z,4.00
2018-04-22T01:09:22.308Z,4.00
2018-04-22T01:10:22.469Z,4.00
2018-04-22T01:11:22.636Z,4.00
2018-04-22T01:12:22.797Z,4.00
2018-04-22T01:13:22.961Z,4.00
2018-04-22T01:15:55.241Z,4.00
2018-04-22T01:16:55.408Z,4.00
2018-04-22T01:17:55.577Z,4.00
2018-04-22T01:18:55.738Z,4.00
2018-04-22T01:19:55.906Z,4.00
2018-04-22T01:20:56.074Z,4.00
2018-04-22T01:21:56.241Z,4.00
2018-04-22T01:22:56.408Z,4.00
2018-04-22T01:23:56.573Z,4.00
2018-04-22T01:24:56.741Z,4.00
2018-04-22T01:25:56.905Z,4.00
2018-04-22T01:26:57.071Z,4.00
2018-04-22T01:27:57.238Z,4.00
2018-04-22T01:28:57.403Z,4.00
2018-04-22T01:29:59.269Z,4.00
2018-04-22T01:59:18.627Z,4.00
2018-04-22T02:00:18.793Z,4.00
2018-04-22T02:01:18.961Z,4.00
2018-04-22T02:02:19.121Z,4.00
2018-04-22T02:03:19.288Z,4.00
2018-04-22T02:04:19.457Z,4.00
2018-04-22T02:05:19.623Z,4.00
2018-04-22T02:06:19.792Z,4.00
2018-04-22T02:07:19.954Z,4.00
2018-04-22T02:08:20.122Z,4.00
2018-04-22T02:09:20.288Z,4.00
2018-04-22T02:10:20.453Z,4.00
2018-04-22T02:11:20.619Z,4.00
2018-04-22T02:12:20.786Z,4.00
2018-04-22T02:13:20.952Z,4.00
2018-04-22T02:16:03.733Z,4.00
2018-04-22T02:17:03.413Z,4.00
2018-04-22T02:18:03.571Z,4.00
2018-04-22T02:19:03.748Z,4.00
2018-04-22T02:20:03.915Z,4.00
2018-04-22T02:21:04.079Z,4.00
2018-04-22T02:22:04.250Z,4.00
2018-04-22T02:23:04.411Z,4.00
2018-04-22T02:24:04.578Z,4.00
2018-04-22T02:25:04.751Z,4.00
2018-04-22T02:26:04.910Z,4.00
2018-04-22T02:27:05.079Z,4.00
2018-04-22T02:28:05.238Z,4.00
2018-04-22T02:29:05.404Z,4.00
2018-04-22T02:30:05.575Z,4.00
2018-04-22T02:32:48.132Z,4.00
2018-04-22T02:33:48.297Z,4.00
2018-04-22T02:34:48.461Z,4.00
2018-04-22T02:35:48.629Z,4.00
2018-04-22T02:36:48.800Z,4.00
2018-04-22T02:37:48.961Z,4.00
2018-04-22T02:38:49.141Z,4.00
2018-04-22T02:39:49.291Z,4.00
2018-04-22T02:40:49.456Z,4.00
2018-04-22T02:41:49.620Z,4.00
2018-04-22T02:42:50.379Z,4.00
2018-04-22T02:43:49.914Z,4.00
2018-04-22T02:44:50.082Z,4.00
2018-04-22T02:45:50.247Z,4.00
2018-04-22T02:46:51.382Z,4.00
2018-04-22T02:49:32.919Z,4.00
2018-04-22T02:50:33.088Z,4.00
2018-04-22T02:51:33.248Z,4.00
2018-04-22T02:52:33.413Z,4.00
2018-04-22T02:53:33.583Z,4.00
2018-04-22T02:54:33.744Z,4.00
2018-04-22T02:55:33.912Z,4.00
2018-04-22T02:56:34.077Z,4.00
2018-04-22T02:57:34.241Z,4.00
2018-04-22T02:58:34.406Z,4.00
2018-04-22T03:01:16.689Z,4.00
2018-04-22T03:02:16.861Z,4.00
2018-04-22T03:03:17.020Z,4.00
2018-04-22T03:04:17.185Z,4.00
2018-04-22T03:05:17.351Z,4.00
2018-04-22T03:06:17.534Z,4.00
2018-04-22T03:07:17.693Z,4.00
2018-04-22T03:08:17.857Z,4.00
2018-04-22T03:09:18.024Z,4.00
2018-04-22T03:10:18.191Z,4.00
2018-04-22T03:11:18.358Z,4.00
2018-04-22T03:12:18.526Z,4.00
2018-04-22T03:13:18.691Z,4.00
2018-04-22T03:14:18.862Z,4.00
2018-04-22T03:15:19.025Z,4.00
2018-04-22T03:18:01.290Z,4.00
2018-04-22T03:19:01.451Z,4.00
2018-04-22T03:20:01.616Z,4.00
2018-04-22T03:21:01.785Z,4.00
2018-04-22T03:22:01.951Z,4.00
2018-04-22T03:23:09.274Z,4.00
2018-04-22T03:24:02.311Z,4.00
2018-04-22T03:25:02.542Z,4.00
2018-04-22T03:26:02.689Z,0.00
2018-04-22T03:27:02.856Z,4.00
2018-04-22T03:28:03.022Z,4.00
2018-04-22T03:29:03.188Z,4.00
2018-04-22T03:30:03.359Z,4.00
2018-04-22T03:31:03.520Z,4.00
2018-04-22T03:32:03.681Z,4.00
2018-04-22T03:33:04.772Z,4.00
2018-04-22T03:34:04.016Z,4.00
2018-04-22T03:35:04.183Z,4.00
2018-04-22T03:36:04.352Z,4.00
2018-04-22T03:37:05.352Z,4.00
2018-04-22T03:39:37.044Z,4.00
2018-04-22T03:40:37.205Z,4.00
2018-04-22T03:41:37.373Z,0.00
2018-04-22T03:42:37.543Z,4.00
2018-04-22T03:43:37.702Z,4.00
2018-04-22T03:44:37.867Z,4.00
2018-04-22T03:45:38.032Z,4.00
2018-04-22T03:46:38.202Z,4.00
2018-04-22T03:47:38.369Z,8.00
2018-04-22T03:48:38.535Z,4.00
2018-04-22T03:51:21.096Z,8.00
2018-04-22T03:52:21.835Z,4.00
2018-04-22T03:53:21.373Z,0.00
2018-04-22T03:54:21.535Z,4.00
2018-04-22T03:55:21.703Z,4.00
2018-04-22T03:56:21.867Z,8.00
2018-04-22T03:57:22.031Z,8.00
2018-04-22T03:58:22.201Z,8.00
2018-04-22T03:59:22.362Z,8.00
2018-04-22T04:00:22.527Z,8.00
2018-04-22T04:01:23.336Z,16.00
2018-04-22T04:02:22.877Z,16.00
2018-04-22T04:03:23.040Z,20.00
2018-04-22T04:04:23.203Z,20.00
2018-04-22T04:05:23.373Z,20.00
2018-04-22T04:08:05.923Z,28.00
2018-04-22T04:09:06.089Z,32.00
2018-04-22T04:10:06.254Z,32.00
2018-04-22T04:11:06.417Z,36.00
2018-04-22T04:12:06.580Z,40.00
2018-04-22T04:13:06.748Z,44.00
2018-04-22T04:14:06.912Z,48.00
2018-04-22T04:15:07.078Z,52.00
2018-04-22T04:16:07.246Z,56.00
2018-04-22T04:17:07.415Z,64.00
2018-04-22T04:19:49.970Z,76.00
2018-04-22T04:20:50.136Z,84.00
2018-04-22T04:21:50.300Z,92.00
2018-04-22T04:22:50.471Z,100.00
2018-04-22T04:23:50.634Z,108.00
2018-04-22T04:24:50.796Z,116.00
2018-04-22T04:25:50.962Z,128.00
2018-04-22T04:26:51.127Z,136.00
2018-04-22T04:27:51.294Z,148.00
2018-04-22T04:28:51.457Z,156.00
2018-04-22T04:31:34.021Z,184.00
2018-04-22T04:32:34.187Z,196.00
2018-04-22T04:33:34.351Z,204.00
2018-04-22T04:34:34.517Z,216.00
2018-04-22T04:35:34.682Z,228.00
2018-04-22T04:36:34.847Z,244.00
2018-04-22T04:37:35.012Z,256.00
2018-04-22T04:38:35.178Z,268.00
2018-04-22T04:39:35.344Z,284.00
2018-04-22T04:40:35.509Z,296.00
2018-04-22T04:43:18.074Z,336.00
2018-04-22T04:44:18.238Z,352.00
2018-04-22T04:45:18.402Z,372.00
2018-04-22T04:46:18.572Z,388.00
2018-04-22T04:47:18.733Z,404.00
2018-04-22T04:48:18.900Z,420.00
2018-04-22T04:49:19.070Z,436.00
2018-04-22T04:50:19.233Z,452.00
2018-04-22T04:51:19.406Z,476.00
2018-04-22T04:52:19.569Z,492.00
2018-04-22T04:53:19.733Z,516.00
2018-04-22T04:54:19.938Z,536.00
2018-04-22T04:55:20.065Z,560.00
2018-04-22T04:56:20.227Z,584.00
2018-04-22T04:57:20.391Z,604.00
2018-04-22T05:01:20.978Z,700.00
2018-04-22T05:02:21.140Z,724.00
2018-04-22T05:03:21.307Z,748.00
2018-04-22T05:04:21.472Z,772.00
2018-04-22T05:05:21.638Z,800.00
2018-04-22T05:06:21.802Z,820.00
2018-04-22T05:07:21.968Z,844.00
2018-04-22T05:08:22.137Z,868.00
2018-04-22T05:09:22.301Z,892.00
2018-04-22T05:10:22.464Z,916.00
2018-04-22T05:13:05.032Z,988.00
2018-04-22T05:14:05.204Z,1020.00
2018-04-22T05:15:05.372Z,1052.00
2018-04-22T05:16:05.536Z,1088.00
2018-04-22T05:17:05.700Z,1120.00
2018-04-22T05:18:05.866Z,1152.00
2018-04-22T05:19:06.030Z,1188.00
2018-04-22T05:20:06.195Z,1224.00
2018-04-22T05:21:06.366Z,1252.00
2018-04-22T05:22:06.527Z,1276.00
2018-04-22T05:23:06.697Z,1312.00
2018-04-22T05:24:06.859Z,1348.00
2018-04-22T05:25:07.024Z,1384.00
2018-04-22T05:26:07.187Z,1416.00
2018-04-22T05:27:07.355Z,1456.00
2018-04-22T05:31:17.983Z,1604.00
2018-04-22T05:32:18.110Z,1640.00
2018-04-22T05:33:18.273Z,1680.00
2018-04-22T05:34:18.438Z,1720.00
2018-04-22T05:35:18.606Z,1768.00
2018-04-22T05:36:18.775Z,1808.00
2018-04-22T05:37:19.727Z,1840.00
2018-04-22T05:38:19.140Z,1880.00
2018-04-22T05:39:19.307Z,1920.00
2018-04-22T05:40:19.472Z,1960.00
2018-04-22T05:42:51.743Z,2044.00
2018-04-22T05:43:51.911Z,2088.00
2018-04-22T05:44:52.076Z,2120.00
2018-04-22T05:45:52.243Z,2152.00
2018-04-22T05:46:52.405Z,2180.00
2018-04-22T05:47:52.571Z,2232.00
2018-04-22T05:48:52.736Z,2280.00
2018-04-22T05:49:52.903Z,2324.00
2018-04-22T05:50:53.071Z,2360.00
2018-04-22T05:51:53.237Z,2404.00
2018-04-22T05:52:53.403Z,2432.00
2018-04-22T05:53:53.570Z,2448.00
2018-04-22T05:54:53.732Z,2484.00
2018-04-22T05:55:53.897Z,2528.00
2018-04-22T05:56:54.060Z,2560.00
2018-04-22T05:59:36.613Z,2652.00
2018-04-22T06:00:36.778Z,2724.00
2018-04-22T06:01:36.943Z,2840.00
2018-04-22T06:02:37.108Z,2952.00
2018-04-22T06:03:37.277Z,3108.00
2018-04-22T06:04:37.441Z,3292.00
2018-04-22T06:05:37.606Z,3508.00
2018-04-22T06:06:37.773Z,3724.00
2018-04-22T06:07:37.936Z,3932.00
2018-04-22T06:08:38.134Z,4064.00
2018-04-22T06:09:38.269Z,4196.00
2018-04-22T06:10:38.436Z,5288.00
2018-04-22T06:11:38.597Z,7472.00
2018-04-22T06:12:38.760Z,8448.00
2018-04-22T06:13:38.928Z,8408.00
2018-04-22T06:16:21.495Z,10024.00
2018-04-22T06:17:21.676Z,9992.00
2018-04-22T06:18:21.828Z,5108.00
2018-04-22T06:19:21.995Z,4368.00
2018-04-22T06:20:22.162Z,3520.00
2018-04-22T06:21:22.332Z,2424.00
2018-04-22T06:22:22.498Z,2260.00
2018-04-22T06:23:22.664Z,2540.00
2018-04-22T06:24:22.833Z,2244.00
2018-04-22T06:25:23.003Z,2292.00
2018-04-22T06:26:23.174Z,2376.00
2018-04-22T06:27:23.335Z,2572.00
2018-04-22T06:28:23.503Z,2808.00
2018-04-22T06:29:23.670Z,6884.00
2018-04-22T06:30:23.839Z,4732.00
2018-04-22T06:33:06.111Z,7600.00
2018-04-22T06:34:06.280Z,7640.00
2018-04-22T06:35:06.447Z,11600.00
2018-04-22T06:36:06.615Z,16800.00
2018-04-22T06:37:06.782Z,17824.00
2018-04-22T06:38:06.947Z,17664.00
2018-04-22T06:39:07.113Z,17088.00
2018-04-22T06:40:07.280Z,16864.00
2018-04-22T06:41:07.448Z,16960.00
2018-04-22T06:42:07.619Z,18592.00
2018-04-22T06:43:07.785Z,17216.00
2018-04-22T06:44:07.952Z,13852.00
2018-04-22T06:45:08.116Z,10616.00
2018-04-22T06:46:08.316Z,12016.00
2018-04-22T06:47:08.452Z,14016.00
2018-04-22T06:49:50.731Z,6672.00
2018-04-22T06:50:50.899Z,6532.00
2018-04-22T06:51:51.093Z,8236.00
2018-04-22T06:52:51.234Z,7988.00
2018-04-22T06:53:51.401Z,14676.00
2018-04-22T06:54:51.567Z,18752.00
2018-04-22T06:55:51.735Z,12848.00
2018-04-22T06:56:51.903Z,6984.00
2018-04-22T06:57:52.071Z,8704.00
2018-04-22T06:58:52.276Z,8592.00
2018-04-22T06:59:52.410Z,9484.00
2018-04-22T07:00:52.579Z,9664.00
2018-04-22T07:01:52.750Z,6892.00
2018-04-22T07:02:52.915Z,6184.00
2018-04-22T07:03:53.084Z,6196.00
2018-04-22T07:06:35.647Z,6248.00
2018-04-22T07:07:35.818Z,8556.00
2018-04-22T07:08:35.986Z,13372.00
2018-04-22T07:09:36.157Z,16416.00
2018-04-22T07:10:36.327Z,17504.00
2018-04-22T07:11:36.492Z,20768.00
2018-04-22T07:12:36.662Z,20416.00
2018-04-22T07:13:36.830Z,18528.00
2018-04-22T07:14:37.001Z,17568.00
2018-04-22T07:15:37.168Z,15424.00
2018-04-22T07:16:37.340Z,9664.00
2018-04-22T07:17:37.512Z,10124.00
2018-04-22T07:18:37.680Z,11376.00
2018-04-22T07:19:37.850Z,7260.00
2018-04-22T07:20:38.021Z,6460.00
2018-04-22T07:25:28.641Z,6668.00
2018-04-22T07:26:28.808Z,7560.00
2018-04-22T07:27:28.980Z,6456.00
2018-04-22T07:28:29.147Z,6692.00
2018-04-22T07:29:29.315Z,7512.00
2018-04-22T07:30:29.483Z,8176.00
2018-04-22T07:31:29.653Z,6824.00
2018-04-22T07:32:29.826Z,7500.00
2018-04-22T07:33:29.991Z,9980.00
2018-04-22T07:34:30.160Z,9732.00
2018-04-22T07:35:30.332Z,6616.00
2018-04-22T07:36:30.501Z,6512.00
2018-04-22T07:37:30.673Z,6584.00
2018-04-22T07:38:30.845Z,6576.00
2018-04-22T07:39:31.009Z,6648.00
2018-04-22T07:42:13.276Z,6752.00
2018-04-22T07:43:13.452Z,6788.00
2018-04-22T07:44:13.620Z,6772.00
2018-04-22T07:45:13.788Z,6852.00
2018-04-22T07:46:13.955Z,6836.00
2018-04-22T07:47:14.125Z,6764.00
2018-04-22T07:48:14.292Z,6760.00
2018-04-22T07:49:14.459Z,6876.00
2018-04-22T07:50:14.630Z,8076.00
2018-04-22T07:51:14.797Z,6916.00
2018-04-22T07:52:14.976Z,6876.00
2018-04-22T07:53:15.142Z,8480.00
2018-04-22T07:54:15.310Z,7000.00
2018-04-22T07:55:15.479Z,7040.00
2018-04-22T07:56:15.649Z,7084.00
2018-04-22T07:58:57.913Z,7008.00
2018-04-22T07:59:58.089Z,7080.00
2018-04-22T08:00:58.253Z,7216.00
2018-04-22T08:01:58.425Z,7312.00
2018-04-22T08:02:58.595Z,7284.00
2018-04-22T08:03:58.762Z,6896.00
2018-04-22T08:04:58.931Z,7264.00
2018-04-22T08:05:59.105Z,7304.00
2018-04-22T08:06:59.272Z,7032.00
2018-04-22T08:07:59.448Z,6652.00
2018-04-22T08:10:41.723Z,6432.00
2018-04-22T08:11:41.895Z,6220.00
2018-04-22T08:12:42.064Z,6324.00
2018-04-22T08:13:42.236Z,6220.00
2018-04-22T08:14:42.441Z,6196.00
2018-04-22T08:15:42.610Z,6084.00
2018-04-22T08:16:42.907Z,5844.00
2018-04-22T08:17:42.949Z,6212.00
2018-04-22T08:18:43.121Z,6092.00
2018-04-22T08:19:43.294Z,7004.00
2018-04-22T08:20:43.462Z,9412.00
2018-04-22T08:21:43.629Z,7472.00
2018-04-22T08:22:44.762Z,7452.00
2018-04-22T08:23:43.932Z,11340.00
2018-04-22T08:24:44.101Z,7644.00
2018-04-22T08:30:44.748Z,4572.00
2018-04-22T08:31:44.920Z,4252.00
2018-04-22T08:32:45.091Z,3972.00
2018-04-22T08:33:45.587Z,3624.00
2018-04-22T08:34:45.473Z,3460.00
2018-04-22T08:35:45.647Z,3356.00
2018-04-22T08:36:45.837Z,3960.00
2018-04-22T08:37:46.131Z,3976.00
2018-04-22T08:38:46.203Z,4216.00
2018-04-22T08:39:46.373Z,4696.00
2018-04-22T08:40:46.547Z,4996.00
2018-04-22T08:41:46.704Z,4460.00
2018-04-22T08:42:46.874Z,4512.00
2018-04-22T08:43:47.042Z,4972.00
2018-04-22T08:44:47.217Z,6616.00
2018-04-22T08:47:19.779Z,4960.00
2018-04-22T08:48:19.955Z,6564.00
2018-04-22T08:49:20.127Z,6656.00
2018-04-22T08:50:20.301Z,6808.00
2018-04-22T08:51:20.476Z,7012.00
2018-04-22T08:52:20.805Z,6624.00
2018-04-22T08:53:20.872Z,6820.00
2018-04-22T08:54:21.044Z,5252.00
2018-04-22T08:55:21.217Z,5008.00
2018-04-22T08:56:21.384Z,6372.00
2018-04-22T08:57:21.552Z,6208.00
2018-04-22T08:58:21.723Z,6740.00
2018-04-22T08:59:21.891Z,6776.00
2018-04-22T09:00:22.331Z,6756.00
2018-04-22T09:01:22.242Z,6608.00
2018-04-22T09:03:54.820Z,6776.00
2018-04-22T09:04:54.992Z,6664.00
2018-04-22T09:05:55.163Z,5888.00
2018-04-22T09:06:55.333Z,6492.00
2018-04-22T09:07:55.504Z,6648.00
2018-04-22T09:08:55.676Z,6736.00
2018-04-22T09:09:55.846Z,6744.00
2018-04-22T09:10:56.014Z,6824.00
2018-04-22T09:11:56.187Z,7540.00
2018-04-22T09:12:56.359Z,10300.00
2018-04-22T09:13:56.529Z,11816.00
2018-04-22T09:14:56.702Z,7092.00
2018-04-22T09:15:56.870Z,6624.00
2018-04-22T09:16:57.041Z,6640.00
2018-04-22T09:17:57.214Z,6612.00
2018-04-22T09:20:39.777Z,6484.00
2018-04-22T09:21:39.955Z,6532.00
2018-04-22T09:22:40.135Z,6800.00
2018-04-22T09:23:40.350Z,6512.00
2018-04-22T09:24:40.479Z,6600.00
2018-04-22T09:25:40.650Z,5872.00
2018-04-22T09:26:40.805Z,7520.00
2018-04-22T09:27:40.985Z,7748.00
2018-04-22T09:28:41.159Z,7144.00
2018-04-22T09:29:41.324Z,6000.00
2018-04-22T09:30:41.499Z,6284.00
2018-04-22T09:31:41.667Z,6388.00
2018-04-22T09:32:41.851Z,6400.00
2018-04-22T09:33:42.019Z,6176.00
2018-04-22T09:34:42.192Z,7752.00
2018-04-22T09:37:14.471Z,6288.00
2018-04-22T09:38:14.642Z,7364.00
2018-04-22T09:39:14.811Z,6884.00
2018-04-22T09:40:14.987Z,6316.00
2018-04-22T09:41:15.151Z,5668.00
2018-04-22T09:42:15.322Z,6176.00
2018-04-22T09:43:15.496Z,6308.00
2018-04-22T09:44:15.666Z,5892.00
2018-04-22T09:45:15.835Z,6120.00
2018-04-22T09:46:16.234Z,7112.00
2018-04-22T09:47:16.172Z,7144.00
2018-04-22T09:48:16.347Z,7492.00
2018-04-22T09:49:16.516Z,8920.00
2018-04-22T09:50:16.687Z,9404.00
2018-04-22T09:51:16.859Z,9284.00
2018-04-22T09:53:49.436Z,6152.00
2018-04-22T09:54:49.617Z,6260.00
2018-04-22T09:55:49.781Z,7248.00
2018-04-22T09:56:49.949Z,11952.00
2018-04-22T09:57:50.113Z,10220.00
2018-04-22T09:58:50.298Z,7112.00
2018-04-22T09:59:50.467Z,6036.00
2018-04-22T10:00:50.645Z,5792.00
2018-04-22T10:01:50.810Z,5784.00
2018-04-22T10:02:50.989Z,5852.00
2018-04-22T10:03:51.153Z,5784.00
2018-04-22T10:04:51.389Z,5788.00
2018-04-22T10:05:51.500Z,5792.00
2018-04-22T10:06:51.670Z,5816.00
2018-04-22T10:07:51.863Z,5872.00
2018-04-22T10:10:34.437Z,5828.00
2018-04-22T10:11:34.615Z,5800.00
2018-04-22T10:12:34.786Z,5856.00
2018-04-22T10:13:34.956Z,5784.00
2018-04-22T10:14:35.130Z,5732.00
2018-04-22T10:15:35.299Z,5672.00
2018-04-22T10:16:35.491Z,5592.00
2018-04-22T10:17:35.644Z,5524.00
2018-04-22T10:18:35.823Z,6800.00
2018-04-22T10:19:35.987Z,5564.00
2018-04-22T10:20:36.158Z,5448.00
2018-04-22T10:21:36.332Z,5516.00
2018-04-22T10:22:36.504Z,6344.00
2018-04-22T10:23:36.676Z,6668.00
2018-04-22T10:24:36.850Z,5576.00
2018-04-22T10:27:09.143Z,5604.00
2018-04-22T10:28:09.314Z,5580.00
2018-04-22T10:29:09.484Z,5700.00
2018-04-22T10:30:09.659Z,7292.00
2018-04-22T10:31:09.834Z,5552.00
2018-04-22T10:32:10.005Z,5528.00
2018-04-22T10:33:10.177Z,5308.00
2018-04-22T10:34:10.348Z,7044.00
2018-04-22T10:35:10.520Z,7296.00
2018-04-22T10:36:10.706Z,14492.00
2018-04-22T10:38:42.996Z,24000.00
2018-04-22T10:39:43.162Z,7656.00
2018-04-22T10:40:43.340Z,5324.00
2018-04-22T10:41:43.515Z,5180.00
2018-04-22T10:42:43.687Z,5076.00
2018-04-22T10:43:43.895Z,4984.00
2018-04-22T10:44:44.048Z,4952.00
2018-04-22T10:45:44.221Z,5024.00
2018-04-22T10:46:44.440Z,5004.00
2018-04-22T10:47:44.653Z,5004.00
2018-04-22T10:48:52.651Z,4948.00
2018-04-22T10:49:44.816Z,4924.00
2018-04-22T10:50:44.989Z,4876.00
2018-04-22T10:51:46.831Z,4776.00
2018-04-22T10:52:53.440Z,3528.00
2018-04-22T10:53:45.527Z,16896.00
2018-04-22T10:54:45.705Z,15072.00
2018-04-22T10:55:45.883Z,7368.00
2018-04-22T10:56:49.198Z,4744.00
2018-04-22T10:57:46.249Z,4656.00
2018-04-22T10:58:46.490Z,4672.00
2018-04-22T10:59:47.093Z,4912.00
2018-04-22T11:00:47.009Z,4724.00
2018-04-22T11:01:47.115Z,4788.00
2018-04-22T11:02:48.681Z,4780.00
2018-04-22T11:03:47.255Z,4780.00
2018-04-22T11:04:47.461Z,4640.00
2018-04-22T11:05:47.511Z,4588.00
2018-04-22T11:06:48.684Z,4344.00
2018-04-22T11:07:47.819Z,4400.00
2018-04-22T11:10:23.593Z,4368.00
2018-04-22T11:11:31.756Z,4248.00
2018-04-22T11:12:23.938Z,4576.00
2018-04-22T11:13:24.288Z,4552.00
2018-04-22T11:14:33.092Z,4316.00
2018-04-22T11:15:24.460Z,4508.00
2018-04-22T11:16:24.645Z,4520.00
2018-04-22T11:17:25.008Z,4132.00
2018-04-22T11:18:24.939Z,4312.00
2018-04-22T11:19:25.165Z,4576.00
2018-04-22T11:20:25.621Z,4680.00
2018-04-22T11:21:25.554Z,4636.00
2018-04-22T11:22:25.873Z,4728.00
2018-04-22T11:23:25.962Z,4588.00
2018-04-22T11:24:26.676Z,4512.00
2018-04-22T11:25:26.235Z,4504.00
2018-04-22T11:26:26.424Z,4480.00
2018-04-22T11:27:26.608Z,4492.00
2018-04-22T11:28:26.772Z,4484.00
2018-04-22T11:32:17.671Z,4292.00
2018-04-22T11:33:17.465Z,4272.00
2018-04-22T11:34:17.643Z,4484.00
2018-04-22T11:35:17.832Z,4608.00
2018-04-22T11:36:17.987Z,4636.00
2018-04-22T11:37:18.156Z,4480.00
2018-04-22T11:38:18.332Z,4116.00
2018-04-22T11:39:18.503Z,4168.00
2018-04-22T11:40:18.675Z,3820.00
2018-04-22T11:41:18.839Z,3344.00
2018-04-22T11:43:51.137Z,3520.00
2018-04-22T11:44:51.309Z,3852.00
2018-04-22T11:45:51.485Z,4008.00
2018-04-22T11:46:51.665Z,3928.00
2018-04-22T11:47:59.276Z,4108.00
2018-04-22T11:48:51.944Z,3812.00
2018-04-22T11:49:52.677Z,3460.00
2018-04-22T11:50:52.257Z,3192.00
2018-04-22T11:52:00.383Z,2808.00
2018-04-22T11:52:52.570Z,2548.00
2018-04-22T11:53:52.747Z,2524.00
2018-04-22T11:54:52.932Z,2496.00
2018-04-22T11:55:53.115Z,2532.00
2018-04-22T11:56:53.282Z,2544.00
2018-04-22T11:57:53.459Z,2844.00
2018-04-22T11:58:53.633Z,3504.00
2018-04-22T11:59:53.812Z,3756.00
2018-04-22T12:00:53.978Z,3980.00
2018-04-22T12:01:54.159Z,4156.00
2018-04-22T12:04:36.498Z,3928.00
2018-04-22T12:05:36.550Z,3784.00
2018-04-22T12:06:36.722Z,3420.00
2018-04-22T12:07:36.902Z,3344.00
2018-04-22T12:08:37.066Z,3312.00
2018-04-22T12:09:37.242Z,3288.00
2018-04-22T12:10:37.415Z,3088.00
2018-04-22T12:11:37.603Z,3348.00
2018-04-22T12:12:37.760Z,3460.00
2018-04-22T12:13:38.469Z,3364.00
2018-04-22T12:16:20.575Z,3700.00
2018-04-22T12:17:21.138Z,3928.00
2018-04-22T12:18:20.896Z,4084.00
2018-04-22T12:19:21.039Z,4204.00
2018-04-22T12:20:21.205Z,4288.00
2018-04-22T12:21:21.382Z,4168.00
2018-04-22T12:22:21.574Z,4032.00
2018-04-22T12:23:21.774Z,3812.00
2018-04-22T12:24:21.903Z,3800.00
2018-04-22T12:25:22.084Z,3652.00
2018-04-22T12:26:22.270Z,3332.00
2018-04-22T12:27:22.426Z,3132.00
2018-04-22T12:28:22.609Z,3044.00
2018-04-22T12:29:22.833Z,2948.00
2018-04-22T12:30:22.965Z,3056.00
2018-04-22T12:33:05.262Z,3680.00
2018-04-22T12:34:05.438Z,3556.00
2018-04-22T12:35:05.628Z,3612.00
2018-04-22T12:36:05.788Z,3580.00
2018-04-22T12:37:05.969Z,3780.00
2018-04-22T12:38:06.168Z,3780.00
2018-04-22T12:39:06.341Z,2864.00
2018-04-22T12:40:06.537Z,3796.00
2018-04-22T12:41:06.689Z,3364.00
2018-04-22T12:42:06.865Z,3796.00
2018-04-22T12:43:07.034Z,3816.00
2018-04-22T12:44:07.217Z,3824.00
2018-04-22T12:45:07.377Z,3808.00
2018-04-22T12:46:07.551Z,3744.00
2018-04-22T12:47:07.717Z,3748.00
2018-04-22T12:49:50.082Z,3556.00
2018-04-22T12:50:50.283Z,3464.00
2018-04-22T12:51:50.444Z,3400.00
2018-04-22T12:52:50.614Z,3424.00
2018-04-22T12:53:50.790Z,3380.00
2018-04-22T12:54:50.957Z,3460.00
2018-04-22T12:55:51.124Z,3352.00
2018-04-22T12:56:51.299Z,3284.00
2018-04-22T12:57:51.465Z,3476.00
2018-04-22T12:58:51.645Z,3424.00
2018-04-22T13:01:33.938Z,3268.00
2018-04-22T13:02:34.096Z,3480.00
2018-04-22T13:03:34.267Z,3296.00
2018-04-22T13:04:34.441Z,3584.00
2018-04-22T13:05:34.612Z,3596.00
2018-04-22T13:06:34.784Z,3488.00
2018-04-22T13:07:34.981Z,3484.00
2018-04-22T13:08:35.139Z,3508.00
2018-04-22T13:09:35.306Z,3576.00
2018-04-22T13:10:35.650Z,3584.00
2018-04-22T13:11:43.263Z,3696.00
2018-04-22T13:12:35.800Z,3532.00
2018-04-22T13:13:36.052Z,3548.00
2018-04-22T13:16:07.744Z,3572.00
2018-04-22T13:17:07.920Z,3464.00
2018-04-22T13:18:08.089Z,3284.00
2018-04-22T13:19:08.539Z,3000.00
2018-04-22T13:20:08.434Z,3520.00
2018-04-22T13:21:08.610Z,3552.00
2018-04-22T13:22:08.790Z,3552.00
2018-04-22T13:23:08.986Z,3648.00
2018-04-22T13:24:09.200Z,3572.00
2018-04-22T13:25:09.370Z,3576.00
2018-04-22T13:26:09.671Z,3440.00
2018-04-22T13:27:09.646Z,3332.00
2018-04-22T13:28:09.857Z,3356.00
2018-04-22T13:29:10.004Z,3364.00
2018-04-22T13:30:10.825Z,3344.00
2018-04-22T13:32:51.669Z,3260.00
2018-04-22T13:33:52.540Z,3144.00
2018-04-22T13:34:52.055Z,2944.00
2018-04-22T13:35:52.232Z,2464.00
2018-04-22T13:36:59.627Z,2764.00
2018-04-22T13:37:52.600Z,2780.00
2018-04-22T13:38:52.772Z,2820.00
2018-04-22T13:39:52.946Z,2864.00
2018-04-22T13:40:53.114Z,3184.00
2018-04-22T13:41:53.280Z,3016.00
2018-04-22T13:42:53.538Z,2624.00
2018-04-22T13:43:53.650Z,2796.00
2018-04-22T13:44:53.824Z,3472.00
2018-04-22T13:46:03.037Z,3404.00
2018-04-22T13:46:54.256Z,3388.00
2018-04-22T13:47:54.896Z,3404.00
2018-04-22T13:48:54.465Z,3204.00
2018-04-22T13:49:54.644Z,3236.00
2018-04-22T13:50:54.881Z,3212.00
2018-04-22T13:51:54.942Z,3308.00
2018-04-22T13:52:55.519Z,3372.00
2018-04-22T13:53:57.093Z,3384.00
2018-04-22T13:54:55.485Z,3288.00
2018-04-22T13:55:55.692Z,3284.00
2018-04-22T13:56:55.938Z,3288.00
2018-04-22T13:57:56.256Z,3220.00
2018-04-22T13:58:56.292Z,3276.00
2018-04-22T13:59:57.001Z,3212.00
2018-04-22T14:00:56.634Z,3156.00
2018-04-22T14:01:59.071Z,3096.00
2018-04-22T14:02:58.231Z,3080.00
2018-04-22T14:03:57.243Z,3116.00
2018-04-22T14:04:57.797Z,3124.00
2018-04-22T14:05:58.804Z,3128.00
2018-04-22T14:06:57.722Z,3072.00
2018-04-22T14:07:58.083Z,3088.00
2018-04-22T14:09:05.918Z,3072.00
2018-04-22T14:09:58.212Z,2988.00
2018-04-22T14:10:58.387Z,2968.00
2018-04-22T14:11:58.561Z,2956.00
2018-04-22T14:12:58.732Z,2908.00
2018-04-22T14:13:58.925Z,2792.00
2018-04-22T14:14:59.067Z,2920.00
2018-04-22T14:15:59.254Z,2900.00
2018-04-22T14:16:59.422Z,2808.00
2018-04-22T14:17:59.595Z,2728.00
2018-04-22T14:21:53.565Z,2752.00
2018-04-22T14:22:53.743Z,2808.00
2018-04-22T14:23:56.637Z,2836.00
2018-04-22T14:24:54.073Z,2812.00
2018-04-22T14:25:54.219Z,2764.00
2018-04-22T14:26:54.418Z,2760.00
2018-04-22T14:27:55.679Z,2724.00